sensor_id;sensor_type;location;lat;lon;timestamp;P1;durP1;ratioP1;P2;durP2;ratioP2
64986;SDS011;51532;52.108;9.360;2022-09-30T00:01:30;12.38;;;10.73;;
64986;SDS011;51532;52.108;9.360;2022-09-30T00:04:20;11.65;;;10.55;;
64986;SDS011;51532;52.108;9.360;2022-09-30T00:07:08;11.52;;;10.48;;
64986;SDS011;51532;52.108;9.360;2022-09-30T00:09:56;12.73;;;11.13;;
64986;SDS011;51532;52.108;9.360;2022-09-30T00:12:43;13.32;;;10.55;;
64986;SDS011;51532;52.108;9.360;2022-09-30T00:15:32;11.23;;;10.13;;
64986;SDS011;51532;52.108;9.360;2022-09-30T00:18:19;11.23;;;10.13;;
64986;SDS011;51532;52.108;9.360;2022-09-30T00:21:07;11.27;;;10.30;;
64986;SDS011;51532;52.108;9.360;2022-09-30T00:23:55;11.07;;;10.02;;
64986;SDS011;51532;52.108;9.360;2022-09-30T00:26:42;12.57;;;11.38;;
64986;SDS011;51532;52.108;9.360;2022-09-30T00:29:29;12.05;;;10.73;;
64986;SDS011;51532;52.108;9.360;2022-09-30T00:32:17;12.05;;;10.85;;
64986;SDS011;51532;52.108;9.360;2022-09-30T00:35:05;12.60;;;11.50;;
64986;SDS011;51532;52.108;9.360;2022-09-30T00:37:52;12.20;;;11.00;;
64986;SDS011;51532;52.108;9.360;2022-09-30T00:40:41;12.27;;;11.18;;
64986;SDS011;51532;52.108;9.360;2022-09-30T00:43:39;12.55;;;11.25;;
64986;SDS011;51532;52.108;9.360;2022-09-30T00:49:19;11.88;;;10.77;;
64986;SDS011;51532;52.108;9.360;2022-09-30T00:52:10;13.50;;;12.20;;
64986;SDS011;51532;52.108;9.360;2022-09-30T00:54:58;12.52;;;11.35;;
64986;SDS011;51532;52.108;9.360;2022-09-30T00:57:47;15.27;;;13.77;;
64986;SDS011;51532;52.108;9.360;2022-09-30T01:00:35;13.85;;;12.45;;
64986;SDS011;51532;52.108;9.360;2022-09-30T01:03:23;14.77;;;12.68;;
64986;SDS011;51532;52.108;9.360;2022-09-30T01:06:11;15.30;;;13.52;;
64986;SDS011;51532;52.108;9.360;2022-09-30T01:08:58;15.32;;;13.68;;
64986;SDS011;51532;52.108;9.360;2022-09-30T01:11:46;13.32;;;12.02;;
64986;SDS011;51532;52.108;9.360;2022-09-30T01:14:34;14.02;;;12.57;;
64986;SDS011;51532;52.108;9.360;2022-09-30T01:17:27;14.18;;;12.80;;
64986;SDS011;51532;52.108;9.360;2022-09-30T01:20:52;15.07;;;13.57;;
64986;SDS011;51532;52.108;9.360;2022-09-30T01:24:15;14.82;;;12.73;;
64986;SDS011;51532;52.108;9.360;2022-09-30T01:30:40;13.85;;;12.20;;
64986;SDS011;51532;52.108;9.360;2022-09-30T01:33:44;17.23;;;15.20;;
64986;SDS011;51532;52.108;9.360;2022-09-30T01:49:06;13.07;;;11.07;;
64986;SDS011;51532;52.108;9.360;2022-09-30T01:55:26;11.98;;;10.68;;
64986;SDS011;51532;52.108;9.360;2022-09-30T02:01:20;12.45;;;11.25;;
64986;SDS011;51532;52.108;9.360;2022-09-30T02:04:14;13.30;;;12.10;;
64986;SDS011;51532;52.108;9.360;2022-09-30T02:07:08;14.18;;;12.75;;
64986;SDS011;51532;52.108;9.360;2022-09-30T02:10:02;13.43;;;12.13;;
64986;SDS011;51532;52.108;9.360;2022-09-30T02:13:13;12.82;;;11.23;;
64986;SDS011;51532;52.108;9.360;2022-09-30T02:16:06;13.80;;;12.40;;
64986;SDS011;51532;52.108;9.360;2022-09-30T02:19:02;13.82;;;12.52;;
64986;SDS011;51532;52.108;9.360;2022-09-30T02:22:28;13.25;;;11.90;;
64986;SDS011;51532;52.108;9.360;2022-09-30T02:25:34;15.30;;;12.43;;
64986;SDS011;51532;52.108;9.360;2022-09-30T02:28:30;14.95;;;12.82;;
64986;SDS011;51532;52.108;9.360;2022-09-30T02:31:19;16.45;;;13.30;;
64986;SDS011;51532;52.108;9.360;2022-09-30T02:34:13;15.63;;;14.00;;
64986;SDS011;51532;52.108;9.360;2022-09-30T02:37:09;15.13;;;13.35;;
64986;SDS011;51532;52.108;9.360;2022-09-30T02:42:47;14.75;;;13.25;;
64986;SDS011;51532;52.108;9.360;2022-09-30T02:49:07;13.98;;;12.55;;
64986;SDS011;51532;52.108;9.360;2022-09-30T02:58:03;13.73;;;12.43;;
64986;SDS011;51532;52.108;9.360;2022-09-30T03:00:58;13.65;;;12.25;;
64986;SDS011;51532;52.108;9.360;2022-09-30T03:03:48;15.05;;;12.35;;
64986;SDS011;51532;52.108;9.360;2022-09-30T03:06:38;13.52;;;12.10;;
64986;SDS011;51532;52.108;9.360;2022-09-30T03:09:26;13.07;;;11.75;;
64986;SDS011;51532;52.108;9.360;2022-09-30T03:12:26;11.65;;;10.65;;
64986;SDS011;51532;52.108;9.360;2022-09-30T03:24:28;13.10;;;11.75;;
64986;SDS011;51532;52.108;9.360;2022-09-30T03:34:24;15.05;;;13.55;;
64986;SDS011;51532;52.108;9.360;2022-09-30T03:43:33;14.75;;;13.35;;
64986;SDS011;51532;52.108;9.360;2022-09-30T03:46:43;16.38;;;14.45;;
64986;SDS011;51532;52.108;9.360;2022-09-30T03:49:38;16.45;;;14.65;;
64986;SDS011;51532;52.108;9.360;2022-09-30T03:52:29;16.25;;;14.52;;
64986;SDS011;51532;52.108;9.360;2022-09-30T03:55:18;16.67;;;14.75;;
64986;SDS011;51532;52.108;9.360;2022-09-30T03:58:08;15.55;;;14.02;;
64986;SDS011;51532;52.108;9.360;2022-09-30T04:00:55;16.42;;;14.02;;
64986;SDS011;51532;52.108;9.360;2022-09-30T04:03:44;17.13;;;14.85;;
64986;SDS011;51532;52.108;9.360;2022-09-30T04:06:32;17.63;;;14.63;;
64986;SDS011;51532;52.108;9.360;2022-09-30T04:09:19;17.08;;;15.25;;
64986;SDS011;51532;52.108;9.360;2022-09-30T04:12:07;16.50;;;14.75;;
64986;SDS011;51532;52.108;9.360;2022-09-30T04:14:55;18.55;;;15.70;;
64986;SDS011;51532;52.108;9.360;2022-09-30T04:17:42;16.98;;;14.45;;
64986;SDS011;51532;52.108;9.360;2022-09-30T04:20:30;17.92;;;16.05;;
64986;SDS011;51532;52.108;9.360;2022-09-30T04:23:18;20.52;;;16.42;;
64986;SDS011;51532;52.108;9.360;2022-09-30T04:26:06;22.52;;;16.85;;
64986;SDS011;51532;52.108;9.360;2022-09-30T04:28:55;19.85;;;15.43;;
64986;SDS011;51532;52.108;9.360;2022-09-30T04:31:44;21.98;;;15.20;;
64986;SDS011;51532;52.108;9.360;2022-09-30T04:34:31;15.98;;;14.32;;
64986;SDS011;51532;52.108;9.360;2022-09-30T04:37:19;16.85;;;15.05;;
64986;SDS011;51532;52.108;9.360;2022-09-30T04:40:07;17.35;;;15.27;;
64986;SDS011;51532;52.108;9.360;2022-09-30T04:42:56;18.33;;;16.30;;
64986;SDS011;51532;52.108;9.360;2022-09-30T04:45:44;20.33;;;16.25;;
64986;SDS011;51532;52.108;9.360;2022-09-30T04:48:32;21.70;;;16.88;;
64986;SDS011;51532;52.108;9.360;2022-09-30T04:51:19;18.98;;;16.30;;
64986;SDS011;51532;52.108;9.360;2022-09-30T04:54:07;19.92;;;16.85;;
64986;SDS011;51532;52.108;9.360;2022-09-30T04:56:54;19.73;;;16.20;;
64986;SDS011;51532;52.108;9.360;2022-09-30T04:59:42;19.77;;;15.98;;
64986;SDS011;51532;52.108;9.360;2022-09-30T05:02:30;19.75;;;15.32;;
64986;SDS011;51532;52.108;9.360;2022-09-30T05:05:17;19.48;;;16.73;;
64986;SDS011;51532;52.108;9.360;2022-09-30T05:08:05;19.35;;;16.42;;
64986;SDS011;51532;52.108;9.360;2022-09-30T05:10:54;29.30;;;16.27;;
64986;SDS011;51532;52.108;9.360;2022-09-30T05:13:57;31.77;;;16.30;;
64986;SDS011;51532;52.108;9.360;2022-09-30T05:16:45;20.85;;;15.52;;
64986;SDS011;51532;52.108;9.360;2022-09-30T05:19:32;21.40;;;15.15;;
64986;SDS011;51532;52.108;9.360;2022-09-30T05:22:20;32.10;;;16.75;;
64986;SDS011;51532;52.108;9.360;2022-09-30T05:25:08;25.00;;;16.30;;
64986;SDS011;51532;52.108;9.360;2022-09-30T05:27:56;60.40;;;19.73;;
64986;SDS011;51532;52.108;9.360;2022-09-30T05:30:43;25.13;;;16.98;;
64986;SDS011;51532;52.108;9.360;2022-09-30T05:33:32;28.65;;;18.33;;
64986;SDS011;51532;52.108;9.360;2022-09-30T05:36:20;96.78;;;19.00;;
64986;SDS011;51532;52.108;9.360;2022-09-30T05:39:08;49.63;;;18.83;;
64986;SDS011;51532;52.108;9.360;2022-09-30T05:41:56;36.78;;;18.98;;
64986;SDS011;51532;52.108;9.360;2022-09-30T05:44:44;37.75;;;17.05;;
64986;SDS011;51532;52.108;9.360;2022-09-30T05:47:32;61.90;;;18.40;;
64986;SDS011;51532;52.108;9.360;2022-09-30T05:50:20;34.75;;;17.10;;
64986;SDS011;51532;52.108;9.360;2022-09-30T05:53:08;39.40;;;18.88;;
64986;SDS011;51532;52.108;9.360;2022-09-30T05:55:56;24.45;;;16.98;;
64986;SDS011;51532;52.108;9.360;2022-09-30T05:58:44;21.38;;;15.98;;
64986;SDS011;51532;52.108;9.360;2022-09-30T06:01:32;19.48;;;14.95;;
64986;SDS011;51532;52.108;9.360;2022-09-30T06:04:20;20.50;;;14.95;;
64986;SDS011;51532;52.108;9.360;2022-09-30T06:07:08;17.65;;;13.60;;
64986;SDS011;51532;52.108;9.360;2022-09-30T06:09:56;17.42;;;14.02;;
64986;SDS011;51532;52.108;9.360;2022-09-30T06:12:44;16.20;;;13.35;;
64986;SDS011;51532;52.108;9.360;2022-09-30T06:15:31;22.30;;;13.95;;
64986;SDS011;51532;52.108;9.360;2022-09-30T06:18:19;17.83;;;13.73;;
64986;SDS011;51532;52.108;9.360;2022-09-30T06:21:08;15.15;;;13.00;;
64986;SDS011;51532;52.108;9.360;2022-09-30T06:23:57;15.40;;;13.20;;
64986;SDS011;51532;52.108;9.360;2022-09-30T06:26:45;15.40;;;12.10;;
64986;SDS011;51532;52.108;9.360;2022-09-30T06:29:32;15.00;;;11.73;;
64986;SDS011;51532;52.108;9.360;2022-09-30T06:32:20;14.57;;;12.85;;
64986;SDS011;51532;52.108;9.360;2022-09-30T06:35:07;14.30;;;12.80;;
64986;SDS011;51532;52.108;9.360;2022-09-30T06:37:55;14.88;;;13.07;;
64986;SDS011;51532;52.108;9.360;2022-09-30T06:40:43;15.23;;;13.45;;
64986;SDS011;51532;52.108;9.360;2022-09-30T06:43:35;16.85;;;13.93;;
64986;SDS011;51532;52.108;9.360;2022-09-30T06:46:31;14.65;;;13.15;;
64986;SDS011;51532;52.108;9.360;2022-09-30T06:49:18;18.13;;;14.32;;
64986;SDS011;51532;52.108;9.360;2022-09-30T06:52:08;19.20;;;14.55;;
64986;SDS011;51532;52.108;9.360;2022-09-30T06:54:58;19.90;;;14.40;;
64986;SDS011;51532;52.108;9.360;2022-09-30T06:57:46;65.72;;;16.67;;
64986;SDS011;51532;52.108;9.360;2022-09-30T07:00:33;40.00;;;17.27;;
64986;SDS011;51532;52.108;9.360;2022-09-30T07:03:26;21.15;;;15.75;;
64986;SDS011;51532;52.108;9.360;2022-09-30T07:06:17;30.63;;;16.08;;
64986;SDS011;51532;52.108;9.360;2022-09-30T07:09:05;29.65;;;17.25;;
64986;SDS011;51532;52.108;9.360;2022-09-30T07:11:53;19.67;;;16.25;;
64986;SDS011;51532;52.108;9.360;2022-09-30T07:14:41;23.90;;;15.93;;
64986;SDS011;51532;52.108;9.360;2022-09-30T07:17:28;17.92;;;15.88;;
64986;SDS011;51532;52.108;9.360;2022-09-30T07:20:15;40.92;;;17.75;;
64986;SDS011;51532;52.108;9.360;2022-09-30T07:23:03;17.88;;;15.85;;
64986;SDS011;51532;52.108;9.360;2022-09-30T07:25:52;20.48;;;15.88;;
64986;SDS011;51532;52.108;9.360;2022-09-30T07:28:46;18.40;;;15.50;;
64986;SDS011;51532;52.108;9.360;2022-09-30T07:31:33;19.15;;;15.85;;
64986;SDS011;51532;52.108;9.360;2022-09-30T07:34:21;24.92;;;16.52;;
64986;SDS011;51532;52.108;9.360;2022-09-30T07:37:10;17.60;;;15.70;;
64986;SDS011;51532;52.108;9.360;2022-09-30T07:39:59;16.35;;;14.63;;
64986;SDS011;51532;52.108;9.360;2022-09-30T07:42:47;23.27;;;18.90;;
64986;SDS011;51532;52.108;9.360;2022-09-30T07:45:35;56.80;;;42.58;;
64986;SDS011;51532;52.108;9.360;2022-09-30T07:48:23;25.05;;;20.75;;
64986;SDS011;51532;52.108;9.360;2022-09-30T07:51:30;29.35;;;23.60;;
64986;SDS011;51532;52.108;9.360;2022-09-30T07:54:28;27.23;;;23.40;;
64986;SDS011;51532;52.108;9.360;2022-09-30T07:57:16;46.65;;;33.85;;
64986;SDS011;51532;52.108;9.360;2022-09-30T08:00:04;18.80;;;16.88;;
64986;SDS011;51532;52.108;9.360;2022-09-30T08:03:13;21.83;;;18.65;;
64986;SDS011;51532;52.108;9.360;2022-09-30T08:06:07;37.95;;;29.08;;
64986;SDS011;51532;52.108;9.360;2022-09-30T08:08:56;29.52;;;24.63;;
64986;SDS011;51532;52.108;9.360;2022-09-30T08:11:44;25.85;;;22.42;;
64986;SDS011;51532;52.108;9.360;2022-09-30T08:14:32;47.53;;;37.38;;
64986;SDS011;51532;52.108;9.360;2022-09-30T08:17:19;18.55;;;16.67;;
64986;SDS011;51532;52.108;9.360;2022-09-30T08:20:07;26.85;;;20.40;;
64986;SDS011;51532;52.108;9.360;2022-09-30T08:22:59;48.22;;;37.45;;
64986;SDS011;51532;52.108;9.360;2022-09-30T08:25:47;25.52;;;22.55;;
64986;SDS011;51532;52.108;9.360;2022-09-30T08:28:35;17.83;;;15.77;;
64986;SDS011;51532;52.108;9.360;2022-09-30T08:31:23;17.05;;;15.25;;
64986;SDS011;51532;52.108;9.360;2022-09-30T08:34:12;19.80;;;16.70;;
64986;SDS011;51532;52.108;9.360;2022-09-30T08:36:59;65.45;;;49.25;;
64986;SDS011;51532;52.108;9.360;2022-09-30T08:39:53;22.65;;;20.17;;
64986;SDS011;51532;52.108;9.360;2022-09-30T08:48:48;44.90;;;32.83;;
64986;SDS011;51532;52.108;9.360;2022-09-30T08:51:43;41.70;;;34.13;;
64986;SDS011;51532;52.108;9.360;2022-09-30T08:54:32;17.10;;;15.13;;
64986;SDS011;51532;52.108;9.360;2022-09-30T08:57:33;16.15;;;14.48;;
64986;SDS011;51532;52.108;9.360;2022-09-30T09:00:23;14.60;;;13.10;;
64986;SDS011;51532;52.108;9.360;2022-09-30T09:03:11;15.20;;;13.25;;
64986;SDS011;51532;52.108;9.360;2022-09-30T09:06:03;15.27;;;13.10;;
64986;SDS011;51532;52.108;9.360;2022-09-30T09:09:03;13.63;;;12.23;;
64986;SDS011;51532;52.108;9.360;2022-09-30T09:11:58;34.20;;;27.63;;
64986;SDS011;51532;52.108;9.360;2022-09-30T09:24:20;13.85;;;12.45;;
64986;SDS011;51532;52.108;9.360;2022-09-30T09:32:58;12.35;;;11.15;;
64986;SDS011;51532;52.108;9.360;2022-09-30T09:45:58;11.75;;;9.57;;
64986;SDS011;51532;52.108;9.360;2022-09-30T09:49:13;11.07;;;9.90;;
64986;SDS011;51532;52.108;9.360;2022-09-30T09:52:26;11.27;;;10.27;;
64986;SDS011;51532;52.108;9.360;2022-09-30T09:55:15;12.02;;;10.93;;
64986;SDS011;51532;52.108;9.360;2022-09-30T09:58:10;11.10;;;10.00;;
64986;SDS011;51532;52.108;9.360;2022-09-30T10:01:09;10.80;;;9.77;;
64986;SDS011;51532;52.108;9.360;2022-09-30T10:04:26;13.75;;;11.43;;
64986;SDS011;51532;52.108;9.360;2022-09-30T10:07:17;11.55;;;10.13;;
64986;SDS011;51532;52.108;9.360;2022-09-30T10:10:19;10.80;;;8.88;;
64986;SDS011;51532;52.108;9.360;2022-09-30T10:13:43;10.48;;;9.32;;
64986;SDS011;51532;52.108;9.360;2022-09-30T10:19:21;11.00;;;10.00;;
64986;SDS011;51532;52.108;9.360;2022-09-30T10:25:34;11.23;;;7.13;;
64986;SDS011;51532;52.108;9.360;2022-09-30T10:28:21;8.10;;;7.05;;
64986;SDS011;51532;52.108;9.360;2022-09-30T10:31:11;9.02;;;7.60;;
64986;SDS011;51532;52.108;9.360;2022-09-30T10:34:22;9.15;;;8.05;;
64986;SDS011;51532;52.108;9.360;2022-09-30T10:37:15;8.20;;;7.40;;
64986;SDS011;51532;52.108;9.360;2022-09-30T10:40:07;9.52;;;7.57;;
64986;SDS011;51532;52.108;9.360;2022-09-30T10:43:01;7.90;;;7.20;;
64986;SDS011;51532;52.108;9.360;2022-09-30T10:45:49;8.85;;;7.75;;
64986;SDS011;51532;52.108;9.360;2022-09-30T10:48:57;8.02;;;7.32;;
64986;SDS011;51532;52.108;9.360;2022-09-30T10:51:45;8.40;;;7.57;;
64986;SDS011;51532;52.108;9.360;2022-09-30T10:57:36;8.73;;;7.82;;
64986;SDS011;51532;52.108;9.360;2022-09-30T11:00:23;9.05;;;8.25;;
64986;SDS011;51532;52.108;9.360;2022-09-30T11:03:15;8.55;;;7.57;;
64986;SDS011;51532;52.108;9.360;2022-09-30T11:06:09;8.15;;;7.35;;
64986;SDS011;51532;52.108;9.360;2022-09-30T11:09:05;10.43;;;7.53;;
64986;SDS011;51532;52.108;9.360;2022-09-30T11:12:01;8.32;;;7.30;;
64986;SDS011;51532;52.108;9.360;2022-09-30T11:15:12;8.52;;;7.72;;
64986;SDS011;51532;52.108;9.360;2022-09-30T11:18:04;7.88;;;7.05;;
64986;SDS011;51532;52.108;9.360;2022-09-30T11:21:25;5.85;;;5.28;;
64986;SDS011;51532;52.108;9.360;2022-09-30T11:24:22;5.90;;;5.30;;
64986;SDS011;51532;52.108;9.360;2022-09-30T11:27:27;5.43;;;4.55;;
64986;SDS011;51532;52.108;9.360;2022-09-30T11:30:23;5.78;;;4.38;;
64986;SDS011;51532;52.108;9.360;2022-09-30T11:33:33;4.93;;;3.97;;
64986;SDS011;51532;52.108;9.360;2022-09-30T11:36:41;4.82;;;3.30;;
64986;SDS011;51532;52.108;9.360;2022-09-30T11:39:43;4.95;;;3.58;;
64986;SDS011;51532;52.108;9.360;2022-09-30T11:42:47;5.47;;;4.60;;
64986;SDS011;51532;52.108;9.360;2022-09-30T11:49:12;5.70;;;3.50;;
64986;SDS011;51532;52.108;9.360;2022-09-30T11:59:21;3.40;;;3.10;;
64986;SDS011;51532;52.108;9.360;2022-09-30T12:02:34;3.95;;;3.03;;
64986;SDS011;51532;52.108;9.360;2022-09-30T12:08:27;19.00;;;14.38;;
64986;SDS011;51532;52.108;9.360;2022-09-30T12:11:19;9.02;;;6.70;;
64986;SDS011;51532;52.108;9.360;2022-09-30T12:14:19;12.75;;;9.60;;
64986;SDS011;51532;52.108;9.360;2022-09-30T12:21:08;5.75;;;4.43;;
64986;SDS011;51532;52.108;9.360;2022-09-30T12:24:14;12.73;;;7.95;;
64986;SDS011;51532;52.108;9.360;2022-09-30T12:27:12;11.95;;;9.55;;
64986;SDS011;51532;52.108;9.360;2022-09-30T12:30:15;4.28;;;3.88;;
64986;SDS011;51532;52.108;9.360;2022-09-30T12:33:10;5.97;;;4.90;;
64986;SDS011;51532;52.108;9.360;2022-09-30T12:39:27;8.82;;;5.22;;
64986;SDS011;51532;52.108;9.360;2022-09-30T12:45:23;28.13;;;19.85;;
64986;SDS011;51532;52.108;9.360;2022-09-30T12:48:37;5.15;;;4.00;;
64986;SDS011;51532;52.108;9.360;2022-09-30T12:51:29;14.77;;;11.25;;
64986;SDS011;51532;52.108;9.360;2022-09-30T12:54:22;16.33;;;11.48;;
64986;SDS011;51532;52.108;9.360;2022-09-30T12:57:23;11.70;;;8.15;;
64986;SDS011;51532;52.108;9.360;2022-09-30T13:00:26;13.00;;;9.68;;
64986;SDS011;51532;52.108;9.360;2022-09-30T13:03:16;4.72;;;4.25;;
64986;SDS011;51532;52.108;9.360;2022-09-30T13:06:04;4.10;;;3.78;;
64986;SDS011;51532;52.108;9.360;2022-09-30T13:17:24;4.53;;;4.20;;
64986;SDS011;51532;52.108;9.360;2022-09-30T13:23:47;5.05;;;4.22;;
64986;SDS011;51532;52.108;9.360;2022-09-30T13:26:39;4.97;;;4.05;;
64986;SDS011;51532;52.108;9.360;2022-09-30T13:29:33;4.82;;;3.80;;
64986;SDS011;51532;52.108;9.360;2022-09-30T13:32:34;4.90;;;4.13;;
64986;SDS011;51532;52.108;9.360;2022-09-30T13:35:28;5.70;;;3.80;;
64986;SDS011;51532;52.108;9.360;2022-09-30T13:38:37;4.68;;;3.40;;
64986;SDS011;51532;52.108;9.360;2022-09-30T13:41:26;4.63;;;3.63;;
64986;SDS011;51532;52.108;9.360;2022-09-30T13:44:15;3.65;;;3.22;;
64986;SDS011;51532;52.108;9.360;2022-09-30T13:47:17;5.07;;;3.80;;
64986;SDS011;51532;52.108;9.360;2022-09-30T13:51:07;4.55;;;3.35;;
64986;SDS011;51532;52.108;9.360;2022-09-30T13:54:07;3.70;;;2.70;;
64986;SDS011;51532;52.108;9.360;2022-09-30T13:57:19;4.28;;;3.60;;
64986;SDS011;51532;52.108;9.360;2022-09-30T14:00:13;4.13;;;3.30;;
64986;SDS011;51532;52.108;9.360;2022-09-30T14:03:12;4.68;;;3.50;;
64986;SDS011;51532;52.108;9.360;2022-09-30T14:06:28;4.93;;;2.97;;
64986;SDS011;51532;52.108;9.360;2022-09-30T14:09:18;3.67;;;2.90;;
64986;SDS011;51532;52.108;9.360;2022-09-30T14:12:38;4.65;;;3.35;;
64986;SDS011;51532;52.108;9.360;2022-09-30T14:22:14;3.97;;;3.08;;
64986;SDS011;51532;52.108;9.360;2022-09-30T14:25:02;3.80;;;2.92;;
64986;SDS011;51532;52.108;9.360;2022-09-30T14:28:01;5.80;;;3.40;;
64986;SDS011;51532;52.108;9.360;2022-09-30T14:30:59;4.43;;;3.10;;
64986;SDS011;51532;52.108;9.360;2022-09-30T14:33:53;3.53;;;3.22;;
64986;SDS011;51532;52.108;9.360;2022-09-30T14:36:42;3.85;;;3.22;;
64986;SDS011;51532;52.108;9.360;2022-09-30T14:39:30;4.28;;;3.10;;
64986;SDS011;51532;52.108;9.360;2022-09-30T14:42:39;4.32;;;2.85;;
64986;SDS011;51532;52.108;9.360;2022-09-30T14:45:34;4.30;;;2.50;;
64986;SDS011;51532;52.108;9.360;2022-09-30T14:51:14;4.10;;;2.58;;
64986;SDS011;51532;52.108;9.360;2022-09-30T14:54:22;6.50;;;2.83;;
64986;SDS011;51532;52.108;9.360;2022-09-30T14:57:17;2.42;;;2.22;;
64986;SDS011;51532;52.108;9.360;2022-09-30T15:00:17;3.45;;;2.30;;
64986;SDS011;51532;52.108;9.360;2022-09-30T15:03:09;3.08;;;2.35;;
64986;SDS011;51532;52.108;9.360;2022-09-30T15:05:57;3.97;;;2.60;;
64986;SDS011;51532;52.108;9.360;2022-09-30T15:08:45;2.63;;;2.28;;
64986;SDS011;51532;52.108;9.360;2022-09-30T15:11:34;3.95;;;2.45;;
64986;SDS011;51532;52.108;9.360;2022-09-30T15:14:25;4.70;;;3.67;;
64986;SDS011;51532;52.108;9.360;2022-09-30T15:17:16;3.58;;;2.53;;
64986;SDS011;51532;52.108;9.360;2022-09-30T15:20:48;3.42;;;2.30;;
64986;SDS011;51532;52.108;9.360;2022-09-30T15:23:19;2.85;;;2.33;;
64986;SDS011;51532;52.108;9.360;2022-09-30T15:26:11;2.90;;;2.60;;
64986;SDS011;51532;52.108;9.360;2022-09-30T15:28:59;2.92;;;2.63;;
64986;SDS011;51532;52.108;9.360;2022-09-30T15:31:48;2.90;;;2.35;;
64986;SDS011;51532;52.108;9.360;2022-09-30T15:34:41;3.90;;;2.17;;
64986;SDS011;51532;52.108;9.360;2022-09-30T15:37:31;3.40;;;2.40;;
64986;SDS011;51532;52.108;9.360;2022-09-30T15:40:20;3.83;;;2.55;;
64986;SDS011;51532;52.108;9.360;2022-09-30T15:43:31;2.35;;;2.00;;
64986;SDS011;51532;52.108;9.360;2022-09-30T15:52:27;44.70;;;27.25;;
64986;SDS011;51532;52.108;9.360;2022-09-30T15:55:34;20.10;;;13.80;;
64986;SDS011;51532;52.108;9.360;2022-09-30T15:58:36;20.10;;;12.93;;
64986;SDS011;51532;52.108;9.360;2022-09-30T16:01:25;38.33;;;18.38;;
64986;SDS011;51532;52.108;9.360;2022-09-30T16:04:23;5.13;;;2.83;;
64986;SDS011;51532;52.108;9.360;2022-09-30T16:07:12;10.98;;;7.10;;
64986;SDS011;51532;52.108;9.360;2022-09-30T16:10:04;20.25;;;12.85;;
64986;SDS011;51532;52.108;9.360;2022-09-30T16:12:54;23.63;;;14.18;;
64986;SDS011;51532;52.108;9.360;2022-09-30T16:15:41;31.83;;;20.42;;
64986;SDS011;51532;52.108;9.360;2022-09-30T16:18:29;27.05;;;15.80;;
64986;SDS011;51532;52.108;9.360;2022-09-30T16:21:27;10.05;;;6.95;;
64986;SDS011;51532;52.108;9.360;2022-09-30T16:27:21;3.55;;;2.97;;
64986;SDS011;51532;52.108;9.360;2022-09-30T16:30:16;7.78;;;3.38;;
64986;SDS011;51532;52.108;9.360;2022-09-30T16:33:04;4.45;;;4.03;;
64986;SDS011;51532;52.108;9.360;2022-09-30T16:35:52;3.97;;;3.40;;
64986;SDS011;51532;52.108;9.360;2022-09-30T16:38:39;4.10;;;3.75;;
64986;SDS011;51532;52.108;9.360;2022-09-30T16:41:27;6.38;;;3.85;;
64986;SDS011;51532;52.108;9.360;2022-09-30T16:44:15;3.97;;;3.47;;
64986;SDS011;51532;52.108;9.360;2022-09-30T16:47:02;4.68;;;3.90;;
64986;SDS011;51532;52.108;9.360;2022-09-30T16:49:50;4.32;;;3.67;;
64986;SDS011;51532;52.108;9.360;2022-09-30T16:52:38;4.90;;;4.47;;
64986;SDS011;51532;52.108;9.360;2022-09-30T16:55:26;5.20;;;4.07;;
64986;SDS011;51532;52.108;9.360;2022-09-30T16:58:13;5.15;;;4.65;;
64986;SDS011;51532;52.108;9.360;2022-09-30T17:01:01;17.92;;;10.48;;
64986;SDS011;51532;52.108;9.360;2022-09-30T17:03:49;35.88;;;26.65;;
64986;SDS011;51532;52.108;9.360;2022-09-30T17:06:40;15.40;;;10.20;;
64986;SDS011;51532;52.108;9.360;2022-09-30T17:09:27;8.13;;;6.15;;
64986;SDS011;51532;52.108;9.360;2022-09-30T17:12:15;7.57;;;5.32;;
64986;SDS011;51532;52.108;9.360;2022-09-30T17:15:02;6.18;;;4.95;;
64986;SDS011;51532;52.108;9.360;2022-09-30T17:17:50;6.60;;;5.20;;
64986;SDS011;51532;52.108;9.360;2022-09-30T17:20:41;5.55;;;4.95;;
64986;SDS011;51532;52.108;9.360;2022-09-30T17:23:29;5.85;;;4.75;;
64986;SDS011;51532;52.108;9.360;2022-09-30T17:26:17;7.97;;;4.70;;
64986;SDS011;51532;52.108;9.360;2022-09-30T17:29:05;6.32;;;4.65;;
64986;SDS011;51532;52.108;9.360;2022-09-30T17:32:12;6.30;;;4.43;;
64986;SDS011;51532;52.108;9.360;2022-09-30T17:34:59;5.57;;;4.93;;
64986;SDS011;51532;52.108;9.360;2022-09-30T17:37:47;5.30;;;4.43;;
64986;SDS011;51532;52.108;9.360;2022-09-30T17:40:34;6.55;;;4.70;;
64986;SDS011;51532;52.108;9.360;2022-09-30T17:43:41;16.25;;;10.07;;
64986;SDS011;51532;52.108;9.360;2022-09-30T17:46:37;8.18;;;6.80;;
64986;SDS011;51532;52.108;9.360;2022-09-30T17:49:33;7.97;;;5.88;;
64986;SDS011;51532;52.108;9.360;2022-09-30T17:52:21;11.20;;;7.88;;
64986;SDS011;51532;52.108;9.360;2022-09-30T17:55:10;11.95;;;8.82;;
64986;SDS011;51532;52.108;9.360;2022-09-30T17:57:58;6.97;;;6.28;;
64986;SDS011;51532;52.108;9.360;2022-09-30T18:00:48;61.63;;;38.05;;
64986;SDS011;51532;52.108;9.360;2022-09-30T18:03:36;43.42;;;29.02;;
64986;SDS011;51532;52.108;9.360;2022-09-30T18:06:23;7.88;;;7.05;;
64986;SDS011;51532;52.108;9.360;2022-09-30T18:09:11;11.02;;;8.40;;
64986;SDS011;51532;52.108;9.360;2022-09-30T18:11:58;8.35;;;7.25;;
64986;SDS011;51532;52.108;9.360;2022-09-30T18:14:46;7.68;;;6.38;;
64986;SDS011;51532;52.108;9.360;2022-09-30T18:17:33;8.43;;;7.20;;
64986;SDS011;51532;52.108;9.360;2022-09-30T18:20:21;7.88;;;6.80;;
64986;SDS011;51532;52.108;9.360;2022-09-30T18:23:11;19.13;;;15.57;;
64986;SDS011;51532;52.108;9.360;2022-09-30T18:25:58;14.85;;;11.25;;
64986;SDS011;51532;52.108;9.360;2022-09-30T18:28:46;9.05;;;7.22;;
64986;SDS011;51532;52.108;9.360;2022-09-30T18:31:34;7.45;;;5.80;;
64986;SDS011;51532;52.108;9.360;2022-09-30T18:34:24;7.65;;;6.45;;
64986;SDS011;51532;52.108;9.360;2022-09-30T18:37:12;7.80;;;6.20;;
64986;SDS011;51532;52.108;9.360;2022-09-30T18:39:59;6.57;;;5.88;;
64986;SDS011;51532;52.108;9.360;2022-09-30T18:42:47;6.65;;;5.57;;
64986;SDS011;51532;52.108;9.360;2022-09-30T18:45:35;6.50;;;5.32;;
64986;SDS011;51532;52.108;9.360;2022-09-30T18:48:24;6.22;;;5.55;;
64986;SDS011;51532;52.108;9.360;2022-09-30T18:51:11;6.30;;;5.40;;
64986;SDS011;51532;52.108;9.360;2022-09-30T18:53:59;5.78;;;5.18;;
64986;SDS011;51532;52.108;9.360;2022-09-30T18:56:47;5.68;;;5.18;;
64986;SDS011;51532;52.108;9.360;2022-09-30T18:59:36;7.50;;;5.38;;
64986;SDS011;51532;52.108;9.360;2022-09-30T19:02:24;7.18;;;6.05;;
64986;SDS011;51532;52.108;9.360;2022-09-30T19:05:13;5.93;;;5.05;;
64986;SDS011;51532;52.108;9.360;2022-09-30T19:08:02;7.82;;;5.03;;
64986;SDS011;51532;52.108;9.360;2022-09-30T19:10:49;6.32;;;5.43;;
64986;SDS011;51532;52.108;9.360;2022-09-30T19:13:37;5.57;;;5.00;;
64986;SDS011;51532;52.108;9.360;2022-09-30T19:16:26;5.93;;;5.38;;
64986;SDS011;51532;52.108;9.360;2022-09-30T19:19:15;5.75;;;4.80;;
64986;SDS011;51532;52.108;9.360;2022-09-30T19:22:03;7.25;;;4.93;;
64986;SDS011;51532;52.108;9.360;2022-09-30T19:24:57;5.80;;;4.55;;
64986;SDS011;51532;52.108;9.360;2022-09-30T19:27:45;4.85;;;4.35;;
64986;SDS011;51532;52.108;9.360;2022-09-30T19:30:35;5.10;;;4.60;;
64986;SDS011;51532;52.108;9.360;2022-09-30T19:33:25;6.47;;;4.63;;
64986;SDS011;51532;52.108;9.360;2022-09-30T19:36:13;5.88;;;5.28;;
64986;SDS011;51532;52.108;9.360;2022-09-30T19:39:01;6.85;;;5.05;;